.
WxDataArchive / Data Records for 2006-04-23
2006-04-22 April 2006 2006-04-24

Data Records for Sunday, 23 April 2006

Time	Temp	Chill	HIndex	Humid	Dewpt	 Wind 	HiWind	WindDir	Rain 	Barom 
-----	----	-----	------	-----	-----	------	------	-------	-----	----- 
00:00	56.2	56.2	56.2	63	43.8	0	1	292	0.00	29.791 
00:05	56.2	56.2	56.2	63	43.8	0	0	---	0.00	29.791 
00:10	56.2	56.2	56.2	63	43.8	0	2	292	0.00	29.791 
00:15	56.0	56.0	56.0	63	43.6	0	0	---	0.00	29.791 
00:20	55.7	55.7	55.7	63	43.3	0	0	---	0.00	29.791 
00:25	55.4	55.4	55.4	63	43.0	0	1	292	0.00	29.791 
00:30	55.1	55.1	55.1	64	43.1	0	0	---	0.00	29.789 
00:35	54.8	54.8	54.8	64	42.9	0	1	292	0.00	29.789 
00:40	54.5	54.5	54.5	65	43.0	0	0	---	0.00	29.789 
00:45	54.2	54.2	54.2	65	42.7	0	1	292	0.00	29.792 
00:50	53.9	53.9	53.9	66	42.8	0	0	---	0.00	29.792 
00:55	53.8	53.8	53.8	66	42.7	0	1	292	0.00	29.792 
01:00	53.6	53.6	53.6	66	42.5	0	1	292	0.00	29.796 
01:05	53.5	53.5	53.5	66	42.4	0	1	292	0.00	29.796 
01:10	53.3	53.3	53.3	65	41.8	0	1	292	0.00	29.796 
01:15	53.3	53.3	53.3	65	41.8	0	1	292	0.00	29.796 
01:20	53.2	53.2	53.2	66	42.1	0	1	292	0.00	29.796 
01:25	52.9	52.9	52.9	66	41.9	0	1	292	0.00	29.796 
01:30	52.8	52.8	52.8	66	41.8	0	0	---	0.00	29.799 
01:35	52.5	52.5	52.5	66	41.5	0	0	---	0.00	29.799 
01:40	52.3	52.3	52.3	66	41.3	0	1	292	0.00	29.799 
01:45	52.3	52.3	52.3	66	41.3	0	1	292	0.00	29.799 
01:50	52.0	52.0	52.0	67	41.4	0	1	292	0.00	29.799 
01:55	51.9	51.9	51.9	67	41.3	0	0	---	0.00	29.799 
02:00	51.6	51.6	51.6	68	41.4	0	1	292	0.00	29.799 
02:05	51.1	51.1	51.1	69	41.3	0	0	---	0.00	29.799 
02:10	50.8	50.8	50.8	69	41.0	0	0	---	0.00	29.799 
02:15	50.7	50.7	50.7	70	41.3	0	0	---	0.00	29.795 
02:20	50.4	50.4	50.4	71	41.4	0	0	---	0.00	29.795 
02:25	50.1	50.1	50.1	71	41.1	0	0	---	0.00	29.795 
02:30	50.1	50.1	50.1	72	41.4	0	1	292	0.00	29.793 
02:35	49.9	49.9	49.9	72	41.2	0	0	---	0.00	29.793 
02:40	49.8	49.8	49.8	72	41.1	0	0	---	0.00	29.793 
02:45	49.6	49.6	49.6	72	40.9	0	0	---	0.00	29.790 
02:50	49.4	49.4	49.4	73	41.1	0	0	---	0.00	29.790 
02:55	49.1	49.1	49.1	73	40.8	0	0	---	0.00	29.790 
03:00	48.8	48.8	48.8	73	40.5	0	0	---	0.00	29.792 
03:05	48.5	48.5	48.5	74	40.6	0	0	---	0.00	29.792 
03:10	48.3	48.3	48.3	74	40.4	0	0	---	0.00	29.792 
03:15	48.0	48.0	48.0	75	40.5	0	0	---	0.00	29.791 
03:20	47.9	47.9	47.9	75	40.4	0	1	292	0.00	29.791 
03:25	47.7	47.7	47.7	75	40.2	0	0	---	0.00	29.791 
03:30	47.7	47.7	47.7	76	40.5	0	0	---	0.00	29.793 
03:35	47.7	47.7	47.7	76	40.5	0	0	---	0.00	29.793 
03:40	47.6	47.6	47.6	76	40.4	0	0	---	0.00	29.793 
03:45	47.4	47.4	47.4	76	40.2	0	0	---	0.00	29.790 
03:50	47.1	47.1	47.1	77	40.3	0	0	---	0.00	29.790 
03:55	47.0	47.0	47.0	77	40.2	0	0	---	0.00	29.790 
04:00	46.8	46.8	46.8	77	40.0	0	0	---	0.00	29.791 
04:05	46.5	46.5	46.5	77	39.7	0	0	---	0.00	29.791 
04:10	46.2	46.2	46.2	78	39.7	0	0	---	0.00	29.791 
04:15	46.1	46.1	46.1	79	40.0	0	0	---	0.00	29.793 
04:20	45.8	45.8	45.8	79	39.7	0	0	---	0.00	29.793 
04:25	45.7	45.7	45.7	80	39.9	0	0	---	0.00	29.793 
04:30	45.5	45.5	45.5	80	39.7	0	0	---	0.00	29.796 
04:35	45.5	45.5	45.5	80	39.7	0	0	---	0.00	29.796 
04:40	45.4	45.4	45.4	81	39.9	0	0	---	0.00	29.796 
04:45	45.2	45.2	45.2	81	39.7	0	0	---	0.00	29.799 
04:50	45.1	45.1	45.1	81	39.6	0	0	---	0.00	29.799 
04:55	44.9	44.9	44.9	81	39.4	0	0	---	0.00	29.799 
05:00	44.8	44.8	44.8	82	39.6	0	0	---	0.00	29.800 
05:05	44.6	44.6	44.6	82	39.4	0	0	---	0.00	29.800 
05:10	44.5	44.5	44.5	83	39.7	0	0	---	0.00	29.800 
05:15	44.3	44.3	44.3	83	39.5	0	0	---	0.00	29.802 
05:20	44.2	44.2	44.2	83	39.4	0	0	---	0.00	29.802 
05:25	44.2	44.2	44.2	84	39.7	0	0	---	0.00	29.802 
05:30	44.3	44.3	44.3	84	39.8	0	0	---	0.00	29.801 
05:35	44.3	44.3	44.3	84	39.8	0	0	---	0.00	29.801 
05:40	44.2	44.2	44.2	84	39.7	0	0	---	0.00	29.801 
05:45	44.2	44.2	44.2	84	39.7	0	0	---	0.00	29.797 
05:50	44.5	44.5	44.5	84	40.0	0	1	292	0.00	29.797 
05:55	44.8	44.8	44.8	83	40.0	0	1	292	0.00	29.797 
06:00	45.2	45.2	45.2	82	40.0	0	1	292	0.00	29.802 
06:05	45.4	45.4	45.4	81	39.9	0	1	292	0.00	29.802 
06:10	45.4	45.4	45.4	81	39.9	0	1	292	0.00	29.802 
06:15	45.4	45.4	45.4	81	39.9	0	1	292	0.00	29.811 
06:20	45.2	45.2	45.2	82	40.0	0	1	292	0.00	29.811 
06:25	45.2	45.2	45.2	82	40.0	0	1	292	0.00	29.811 
06:30	45.1	45.1	45.1	82	39.9	0	0	---	0.00	29.811 
06:35	45.1	45.1	45.1	82	39.9	0	1	292	0.00	29.811 
06:40	44.9	44.9	44.9	82	39.7	0	0	---	0.00	29.811 
06:45	44.8	44.8	44.8	82	39.6	0	0	---	0.00	29.814 
06:50	44.6	44.6	44.6	82	39.4	0	0	---	0.00	29.814 
06:55	44.6	44.6	44.6	83	39.8	0	1	292	0.00	29.814 
07:00	44.6	44.6	44.6	83	39.8	0	1	292	0.00	29.817 
07:05	44.6	44.6	44.6	83	39.8	0	2	292	0.00	29.817 
07:10	44.6	44.6	44.6	83	39.8	0	1	292	0.00	29.817 
07:15	44.6	44.6	44.6	83	39.8	0	1	292	0.00	29.829 
07:20	44.9	44.9	44.9	83	40.1	0	1	292	0.00	29.829 
07:25	45.2	45.2	45.2	83	40.3	0	1	292	0.00	29.829 
07:30	45.8	45.8	45.8	82	40.6	1	2	292	0.00	29.837 
07:35	46.4	46.4	46.4	81	40.9	1	2	292	0.00	29.837 
07:40	46.8	46.8	46.8	80	41.0	1	2	292	0.00	29.837 
07:45	47.4	47.4	47.4	79	41.2	1	3	292	0.00	29.844 
07:50	47.7	47.7	47.7	78	41.2	0	3	270	0.00	29.844 
07:55	48.2	48.2	48.2	78	41.7	1	2	270	0.00	29.844 
08:00	48.6	48.6	48.6	77	41.7	1	2	270	0.00	29.847 
08:05	49.1	49.1	49.1	77	42.2	1	2	270	0.00	29.847 
08:10	49.5	49.5	49.5	75	41.9	1	3	248	0.00	29.847 
08:15	50.1	50.1	50.1	74	42.1	1	3	225	0.00	29.856 
08:20	50.4	50.4	50.4	74	42.4	1	3	225	0.00	29.856 
08:25	50.8	50.8	50.8	72	42.1	2	4	248	0.00	29.856 
08:30	51.1	51.1	51.1	72	42.4	1	7	292	0.00	29.857 
08:35	51.3	51.3	51.3	73	42.9	1	3	270	0.00	29.857 
08:40	51.7	51.7	51.7	69	41.9	2	4	270	0.00	29.857 
08:45	52.2	52.2	52.2	70	42.7	1	3	270	0.00	29.859 
08:50	52.5	52.5	52.5	69	42.6	2	4	248	0.00	29.859 
08:55	52.6	52.6	52.6	69	42.7	2	4	248	0.00	29.859 
09:00	52.8	52.8	52.8	69	42.9	1	3	315	0.00	29.856 
09:05	53.3	53.3	53.3	69	43.4	2	3	248	0.00	29.856 
09:10	53.6	53.6	53.6	66	42.5	2	4	270	0.00	29.856 
09:15	53.8	53.8	53.8	67	43.1	2	4	270	0.00	29.858 
09:20	54.1	54.1	54.1	67	43.4	2	4	270	0.00	29.858 
09:25	54.5	54.5	54.5	65	43.0	2	6	248	0.00	29.858 
09:30	54.8	54.8	54.8	65	43.3	2	3	248	0.00	29.858 
09:35	55.0	55.0	55.0	64	43.0	3	6	248	0.00	29.858 
09:40	55.3	55.3	55.3	63	42.9	2	5	248	0.00	29.858 
09:45	55.4	55.4	55.4	62	42.6	3	7	248	0.00	29.858 
09:50	55.9	55.9	55.9	62	43.1	2	5	248	0.00	29.858 
09:55	56.2	56.2	56.2	62	43.4	3	7	270	0.00	29.858 
10:00	56.6	56.6	56.6	63	44.2	2	6	248	0.00	29.856 
10:05	56.9	56.9	56.9	62	44.0	3	9	270	0.00	29.856 
10:10	56.7	56.7	56.7	60	43.0	4	9	270	0.00	29.856 
10:15	56.9	56.9	56.9	59	42.7	5	10	248	0.00	29.859 
10:20	57.0	57.0	57.0	60	43.3	5	10	270	0.00	29.859 
10:25	57.6	57.6	57.6	58	42.9	3	5	270	0.00	29.859 
10:30	58.1	58.1	58.1	61	44.7	3	5	248	0.00	29.857 
10:35	58.4	58.4	58.4	55	42.3	3	6	270	0.00	29.857 
10:40	58.6	58.6	58.6	57	43.4	3	6	248	0.00	29.857 
10:45	58.7	58.7	58.7	59	44.4	4	8	270	0.00	29.851 
10:50	58.9	58.9	58.9	57	43.7	4	10	270	0.00	29.851 
10:55	59.3	59.3	59.3	55	43.1	3	9	248	0.00	29.851 
11:00	59.8	59.8	59.8	55	43.6	3	6	248	0.00	29.853 
11:05	59.9	59.9	59.9	55	43.7	4	9	248	0.00	29.853 
11:10	59.8	59.8	59.8	55	43.6	4	11	270	0.00	29.853 
11:15	60.2	60.2	60.2	55	44.0	4	7	270	0.00	29.856 
11:20	60.1	60.1	60.1	54	43.4	4	9	270	0.00	29.856 
11:25	59.9	59.9	59.9	54	43.2	3	6	270	0.00	29.856 
11:30	59.6	59.6	59.6	55	43.4	3	7	270	0.00	29.853 
11:35	59.9	59.9	59.9	53	42.7	3	5	270	0.00	29.853 
11:40	60.4	60.4	60.4	52	42.7	4	10	270	0.00	29.853 
11:45	60.5	60.5	60.5	53	43.3	3	7	270	0.00	29.856 
11:50	60.4	60.4	60.4	52	42.7	4	9	270	0.00	29.856 
11:55	60.9	60.9	60.9	51	42.6	4	9	248	0.00	29.856 
12:00	61.0	61.0	61.0	52	43.2	3	5	248	0.00	29.852 
12:05	61.3	61.3	61.3	50	42.5	4	10	270	0.00	29.852 
12:10	61.0	61.0	61.0	53	43.7	3	9	270	0.00	29.852 
12:15	61.6	61.6	61.6	53	44.3	4	9	270	0.00	29.844 
12:20	62.0	62.0	62.0	51	43.7	4	10	270	0.00	29.844 
12:25	62.1	62.1	62.1	52	44.3	3	7	270	0.00	29.844 
12:30	62.6	62.6	62.6	52	44.7	3	7	248	0.00	29.840 
12:35	62.7	62.7	62.7	51	44.3	4	9	270	0.00	29.840 
12:40	62.9	62.9	62.9	51	44.5	3	9	270	0.00	29.840 
12:45	62.9	62.9	62.9	47	42.4	4	11	270	0.00	29.838 
12:50	63.2	63.2	63.2	48	43.2	3	12	270	0.00	29.838 
12:55	63.7	63.7	63.7	48	43.6	3	6	270	0.00	29.838 
13:00	64.0	64.0	64.0	50	45.0	2	5	270	0.00	29.827 
13:05	64.3	64.3	64.3	48	44.2	3	6	270	0.00	29.827 
13:10	64.0	64.0	64.0	47	43.4	4	10	270	0.00	29.827 
13:15	63.9	63.9	63.9	44	41.6	5	10	248	0.00	29.827 
13:20	64.5	64.5	64.5	49	44.9	3	6	248	0.00	29.827 
13:25	64.8	64.8	64.8	46	43.5	4	9	270	0.00	29.827 
13:30	65.3	65.3	65.3	52	47.2	3	9	248	0.00	29.823 
13:35	65.5	65.5	65.5	44	43.0	3	7	270	0.00	29.823 
13:40	65.6	65.6	65.6	45	43.7	4	9	248	0.00	29.823 
13:45	65.6	65.6	65.6	47	44.8	4	9	270	0.00	29.818 
13:50	65.5	65.5	65.5	43	42.4	4	7	270	0.00	29.818 
13:55	65.5	65.5	65.5	46	44.2	3	11	270	0.00	29.818 
14:00	65.2	65.2	65.2	44	42.7	4	9	248	0.00	29.814 
14:05	65.6	65.6	65.6	42	41.9	4	7	270	0.00	29.814 
14:10	66.8	66.8	66.8	46	45.3	4	12	270	0.00	29.814 
14:15	67.3	67.3	67.3	44	44.6	3	9	270	0.00	29.812 
14:20	66.4	66.4	66.4	45	44.4	2	5	315	0.00	29.812 
14:25	66.8	66.8	66.8	43	43.6	2	5	270	0.00	29.812 
14:30	67.4	67.4	67.4	45	45.3	3	9	270	0.00	29.808 
14:35	67.3	67.3	67.3	39	41.5	4	8	270	0.00	29.808 
14:40	66.9	66.9	66.9	40	41.8	3	6	270	0.00	29.808 
14:45	66.8	66.8	66.8	41	42.3	3	6	248	0.00	29.807 
14:50	66.3	66.3	66.3	43	43.1	3	5	270	0.00	29.807 
14:55	66.0	66.0	66.0	42	42.2	2	6	315	0.00	29.807 
15:00	65.8	65.8	65.8	45	43.9	2	6	270	0.00	29.809 
15:05	65.6	65.6	65.6	44	43.1	3	6	270	0.00	29.809 
15:10	66.6	66.6	66.6	42	42.8	3	9	270	0.00	29.809 
15:15	67.6	67.6	67.6	43	44.3	3	9	270	0.00	29.800 
15:20	67.3	67.3	67.3	42	43.4	2	4	270	0.00	29.800 
15:25	67.8	67.8	67.8	42	43.9	2	4	270	0.00	29.800 
15:30	68.3	68.3	68.3	39	42.4	4	7	270	0.00	29.797 
15:35	68.6	68.6	68.6	36	40.6	4	14	248	0.00	29.797 
15:40	68.9	68.9	68.9	39	42.9	3	10	248	0.00	29.797 
15:45	68.3	68.3	68.3	37	41.0	4	9	248	0.00	29.795 
15:50	67.4	67.4	67.4	42	43.5	4	10	248	0.00	29.795 
15:55	66.9	66.9	66.9	39	41.1	2	5	248	0.00	29.795 
16:00	66.4	66.4	66.4	39	40.7	3	6	270	0.00	29.793 
16:05	66.1	66.1	66.1	39	40.4	1	4	315	0.00	29.793 
16:10	66.0	66.0	66.0	40	41.0	2	4	270	0.00	29.793 
16:15	66.1	66.1	66.1	39	40.4	2	4	270	0.00	29.787 
16:20	65.8	65.8	65.8	38	39.5	3	5	270	0.00	29.787 
16:25	65.6	65.6	65.6	40	40.6	2	5	270	0.00	29.787 
16:30	65.3	65.3	65.3	38	39.0	3	6	270	0.00	29.786 
16:35	65.3	65.3	65.3	38	39.0	3	5	270	0.00	29.786 
16:40	65.2	65.2	65.2	39	39.6	3	6	270	0.00	29.786 
16:45	65.2	65.2	65.2	39	39.6	3	5	270	0.00	29.784 
16:50	65.3	65.3	65.3	38	39.0	3	6	270	0.00	29.784 
16:55	65.3	65.3	65.3	39	39.7	2	4	248	0.00	29.784 
17:00	65.3	65.3	65.3	39	39.7	3	9	248	0.00	29.783 
17:05	65.2	65.2	65.2	39	39.6	2	3	248	0.00	29.783 
17:10	65.2	65.2	65.2	39	39.6	2	5	248	0.00	29.783 
17:15	65.2	65.2	65.2	41	40.9	2	5	248	0.00	29.784 
17:20	65.0	65.0	65.0	39	39.4	2	7	248	0.00	29.784 
17:25	65.0	65.0	65.0	40	40.1	2	6	248	0.00	29.784 
17:30	65.0	65.0	65.0	40	40.1	2	6	248	0.00	29.785 
17:35	65.0	65.0	65.0	39	39.4	3	7	270	0.00	29.785 
17:40	65.0	65.0	65.0	40	40.1	1	3	270	0.00	29.785 
17:45	65.0	65.0	65.0	40	40.1	1	4	248	0.00	29.786 
17:50	64.8	64.8	64.8	39	39.3	1	3	248	0.00	29.786 
17:55	64.7	64.7	64.7	41	40.5	1	3	270	0.00	29.786 
18:00	64.7	64.7	64.7	41	40.5	1	3	248	0.00	29.786 
18:05	64.7	64.7	64.7	40	39.8	2	4	248	0.00	29.786 
18:10	64.8	64.8	64.8	41	40.5	1	3	248	0.00	29.786 
18:15	64.8	64.8	64.8	40	39.9	1	3	248	0.00	29.787 
18:20	64.8	64.8	64.8	40	39.9	1	3	248	0.00	29.787 
18:25	64.8	64.8	64.8	39	39.3	1	4	248	0.00	29.787 
18:30	64.8	64.8	64.8	41	40.5	1	2	248	0.00	29.787 
18:35	64.8	64.8	64.8	41	40.5	1	1	248	0.00	29.787 
18:40	64.7	64.7	64.7	41	40.5	0	1	248	0.00	29.787 
18:45	64.7	64.7	64.7	40	39.8	1	2	248	0.00	29.790 
18:50	64.5	64.5	64.5	40	39.6	1	2	270	0.00	29.790 
18:55	63.4	63.4	63.4	45	41.7	2	5	0	0.00	29.790 
19:00	61.3	61.3	61.3	48	41.4	3	11	0	0.00	29.813 
19:05	60.2	60.2	60.2	50	41.5	2	5	0	0.00	29.813 
19:10	59.8	59.8	59.8	50	41.1	2	6	0	0.00	29.813 
19:15	59.5	59.5	59.5	52	41.9	2	5	292	0.00	29.817 
19:20	59.0	59.0	59.0	53	41.9	2	7	338	0.00	29.817 
19:25	58.7	58.7	58.7	54	42.1	1	5	0	0.00	29.817 
19:30	58.6	58.6	58.6	54	42.0	1	3	0	0.00	29.817 
19:35	58.4	58.4	58.4	55	42.3	2	5	338	0.00	29.817 
19:40	58.1	58.1	58.1	55	42.0	2	5	292	0.00	29.817 
19:45	57.8	57.8	57.8	56	42.2	1	6	292	0.00	29.823 
19:50	57.6	57.6	57.6	57	42.5	1	4	338	0.00	29.823 
19:55	57.5	57.5	57.5	57	42.4	1	3	270	0.00	29.823 
20:00	57.5	57.5	57.5	58	42.8	2	7	292	0.00	29.831 
20:05	57.3	57.3	57.3	58	42.6	1	5	270	0.00	29.831 
20:10	57.2	57.2	57.2	58	42.6	1	4	315	0.00	29.831 
20:15	57.0	57.0	57.0	58	42.4	2	5	315	0.00	29.832 
20:20	56.9	56.9	56.9	59	42.7	1	3	270	0.00	29.832 
20:25	56.7	56.7	56.7	59	42.5	1	4	270	0.00	29.832 
20:30	56.6	56.6	56.6	59	42.4	1	4	292	0.00	29.837 
20:35	56.5	56.5	56.5	59	42.3	2	6	292	0.00	29.837 
20:40	56.2	56.2	56.2	60	42.5	1	4	338	0.00	29.837 
20:45	56.0	56.0	56.0	60	42.3	2	5	315	0.00	29.847 
20:50	55.7	55.7	55.7	61	42.5	3	9	292	0.00	29.847 
20:55	55.4	55.4	55.4	62	42.6	2	6	0	0.00	29.847 
21:00	55.1	55.1	55.1	62	42.3	1	4	315	0.00	29.848 
21:05	55.0	55.0	55.0	63	42.6	1	4	292	0.00	29.848 
21:10	54.8	54.8	54.8	64	42.9	1	3	292	0.00	29.848 
21:15	54.7	54.7	54.7	64	42.8	1	2	338	0.00	29.845 
21:20	54.5	54.5	54.5	63	42.2	2	6	292	0.00	29.845 
21:25	54.4	54.4	54.4	64	42.5	1	3	292	0.00	29.845 
21:30	54.2	54.2	54.2	63	41.9	2	5	270	0.00	29.850 
21:35	54.1	54.1	54.1	63	41.8	1	4	0	0.00	29.850 
21:40	54.1	54.1	54.1	63	41.8	1	4	338	0.00	29.850 
21:45	54.1	54.1	54.1	64	42.2	1	3	338	0.00	29.857 
21:50	54.1	54.1	54.1	64	42.2	1	6	338	0.00	29.857 
21:55	53.9	53.9	53.9	64	42.0	1	5	270	0.00	29.857 
22:00	53.9	53.9	53.9	64	42.0	1	4	338	0.00	29.862 
22:05	53.6	53.6	53.6	65	42.1	1	4	270	0.00	29.862 
22:10	53.5	53.5	53.5	65	42.0	0	3	270	0.00	29.862 
22:15	53.2	53.2	53.2	66	42.1	0	1	292	0.00	29.866 
22:20	52.8	52.8	52.8	67	42.1	1	3	292	0.00	29.866 
22:25	52.5	52.5	52.5	67	41.9	1	4	270	0.00	29.866 
22:30	52.2	52.2	52.2	67	41.6	1	5	315	0.00	29.873 
22:35	51.9	51.9	51.9	67	41.3	1	5	270	0.00	29.873 
22:40	51.6	51.6	51.6	68	41.4	1	3	292	0.00	29.873 
22:45	51.3	51.3	51.3	68	41.1	1	3	270	0.00	29.877 
22:50	51.1	51.1	51.1	67	40.5	2	5	270	0.00	29.877 
22:55	51.0	51.0	51.0	68	40.8	1	5	270	0.00	29.877 
23:00	50.7	50.7	50.7	68	40.5	1	3	315	0.00	29.879 
23:05	50.2	50.2	50.2	69	40.4	1	3	248	0.00	29.879 
23:10	49.9	49.9	49.9	69	40.1	1	3	248	0.00	29.879 
23:15	49.8	49.8	49.8	69	40.0	1	4	338	0.00	29.882 
23:20	49.8	49.8	49.8	69	40.0	1	4	315	0.00	29.882 
23:25	49.5	49.5	49.5	70	40.1	1	2	292	0.00	29.882 
23:30	49.2	49.2	49.2	71	40.2	0	2	292	0.00	29.884 
23:35	48.9	48.9	48.9	71	39.9	0	2	292	0.00	29.884 
23:40	48.6	48.6	48.6	72	40.0	0	3	292	0.00	29.884 
23:45	48.5	48.5	48.5	73	40.2	0	1	292	0.00	29.879 
23:50	48.2	48.2	48.2	73	40.0	0	1	292	0.00	29.879 
23:55	48.0	48.0	48.0	74	40.1	0	3	292	0.00	29.879 

CoCoRaHS
IN-AL-39
A2 Web Hosting
Creative Commons License
GoDaddy
Look for:

loaded 2017-12-12 17:10:36 • last modified 2010-11-18 10:43:29
Privacy PolicyDisclaimer
• wx.awcolley.com is powered by PmWiki v.2002016 •
• all content (unless otherwise noted) © 2017 A W Colley